Decoded Metar for KLEE (LEESBURG in FL, USA) (IATA:LEE) | Meteo·Mobile Aviation Weather
aviador You're here:

KLEE Decoded Metar

LEESBURG in FL, USA
Report Time2019-03-21 00:53:00
UTC Time2019-03-21 01:31:31
Flight Rules vfr VFR
Wind060° at 08 kt
W.Decomp.*RWY 03: 6.6 kt HW 4.6 kt RCW
RWY 13: 3.4 kt HW 7.3 kt LCW
W.Rank060° ranks 9
Current wind is above 060° avg. (6.9)
Visibility9999 m
Phenomena:N/A
Clouds:Overcast 070 Hf
Expected CloudBase > 3,200 ft AGL from Temp-Dew spread
Ceiling7,000 ft
Temp18°C (ISA +3)
Dew Point10°C (60% RH)
AAT15.2°C
QNH1018 hPa
Density Alt443 ft
Elevation75 ft
Report Wrong Elevation
Raw Report
METAR KLEE 210053Z AUTO 06008KT 10SM OVC070 18/10 A3006 RMK AO2 SLP179
T01830100=

Extra information for KLEE:More info

Metar Taf Metar & Taf Last 4 Metars F.Rules Stats Wind Profile Meteogram Temp Stats Airport Information Weather charts Add Link Nearby VenuesMetar ALERT Operation Metar Decoded Social comments

AIRNAV info for KLEE